Hysham, Montana
Current Conditions -  °F | °C
As of 5:53 PM on Tuesday 21 Oct 2014 (Local Time) from KMLS Reporting Station
Light Rain Light Rain  
Wind Chill: 68°   Ceiling: 11000
Heat Index: 68°   Visibility: 9mi
Dew Point: 42°   Wind: 8mph
Humidity: 39%   Direction: 290°WNW
Pressure: 29.62"   Gusts: NA
Location:  46.29°N, 107.23°W
Report Text: KMLS 212353Z AUTO 29007KT 9SM -RA FEW050 SCT070 OVC110 20/06 A2962 RMK AO2 LTG DSNT S RAB49 SLP026 P0000 60000 T02000056 10250 20161 53005
Loading
Personal Weather Stations






























Interactive Weather Map
Tropical Storm Tracking
New forecast layout! Learn more

10-Day Weather Forecast

Advertisements
Track Severe Weather on mobile